Cherryville, North Carolina
Current Conditions -  °F | °C
As of 2:35 PM on Thursday 30 Oct 2014 (Local Time) from KIPJ Reporting Station
Clear Clear  
Wind Chill: 65°   Ceiling: Unl
Heat Index: 65°   Visibility: 10mi
Dew Point: 32°   Wind: 0mph
Humidity: 29%   Direction: NA
Pressure: 30"   Gusts: NA
Location:  35.38°N, 81.38°W
Report Text: KIPJ 301835Z AUTO 00000KT 10SM CLR 19/00 A3000 RMK AO2 T01860002
Loading
Personal Weather Stations






























Interactive Weather Map
Tropical Storm Tracking
New forecast layout! Learn more

10-Day Weather Forecast

Advertisements
Track Severe Weather on mobile